This is the latest recevied weather packets stored in our database for station/object K7MT-WX. If no packets are shown the sender has not sent any weather packets the latest 10 day(s).
| Time | Temp. | Humidity | Pressure | Rain* | Wind** | Luminosity | Snow |
|---|---|---|---|---|---|---|---|
| 1777582989 | 17.22° C | 27% | 1020.8 hPa | 0 mm | - | - | - |
| 1777582089 | 16.67° C | 26% | 1020.8 hPa | 0 mm | - | - | - |
| 1777581189 | 16.67° C | 28% | 1021.1 hPa | 0 mm | - | - | - |
| 1777580289 | 16.11° C | 29% | 1021.1 hPa | 0 mm | - | - | - |
| 1777579389 | 16.11° C | 28% | 1021.1 hPa | 0 mm | - | - | - |
| 1777578489 | 16.67° C | 31% | 1021.3 hPa | 0 mm | - | - | - |
| 1777577589 | 16.67° C | 31% | 1021.6 hPa | 0 mm | - | - | - |
| 1777576689 | 16.11° C | 31% | 1021.8 hPa | 0 mm | - | - | - |
| 1777575789 | 16.11° C | 31% | 1022 hPa | 0 mm | - | - | - |
| 1777574889 | 16.11° C | 29% | 1022.2 hPa | 0 mm | - | - | - |
| 1777573989 | 15° C | 37% | 1022.4 hPa | 0 mm | - | - | - |
| 1777573089 | 14.44° C | 40% | 1022.5 hPa | 0 mm | - | - | - |
| 1777572189 | 13.89° C | 43% | 1022.7 hPa | 0 mm | - | - | - |
| 1777571289 | 13.33° C | 45% | 1023 hPa | 0 mm | - | - | - |
| 1777570389 | 12.22° C | 49% | 1023.1 hPa | 0 mm | - | - | - |
| 1777569489 | 11.11° C | 50% | 1023.2 hPa | 0 mm | - | - | - |
| 1777568589 | 10.56° C | 54% | 1023.4 hPa | 0 mm | - | - | - |
| 1777567689 | 9.44° C | 59% | 1023.5 hPa | 0 mm | - | - | - |
| 1777566789 | 8.89° C | 61% | 1023.7 hPa | 0 mm | - | - | - |
| 1777565889 | 8.89° C | 59% | 1023.9 hPa | 0 mm | - | - | - |
| 1777564989 | 8.89° C | 61% | 1024 hPa | 0 mm | - | - | - |
| 1777564089 | 6.11° C | 66% | 1024.1 hPa | 0 mm | - | - | - |
| 1777563189 | 5° C | 70% | 1024.3 hPa | 0 mm | - | - | - |
| 1777562289 | 5° C | 68% | 1024.5 hPa | 0 mm | - | - | - |
| 1777561389 | 4.44° C | 69% | 1024.4 hPa | 0 mm | - | - | - |
* Rain latest hour (hover to see other rain measurements)
** Current wind speed in m/s (hover to see current wind gust speed)